sensor_id;sensor_type;location;lat;lon;timestamp;pressure;altitude;pressure_sealevel;temperature;humidity
9721;BME280;4899;42.644;23.366;2022-07-03T00:00:18;94751.28;;;19.60;100.00
9721;BME280;4899;42.644;23.366;2022-07-03T00:02:44;94759.91;;;19.64;100.00
9721;BME280;4899;42.644;23.366;2022-07-03T00:05:11;94756.19;;;19.65;100.00
9721;BME280;4899;42.644;23.366;2022-07-03T00:07:38;94755.84;;;19.66;100.00
9721;BME280;4899;42.644;23.366;2022-07-03T00:10:06;94750.56;;;19.63;100.00
9721;BME280;4899;42.644;23.366;2022-07-03T00:12:35;94750.56;;;19.63;100.00
9721;BME280;4899;42.644;23.366;2022-07-03T00:15:02;94752.06;;;19.64;100.00
9721;BME280;4899;42.644;23.366;2022-07-03T00:17:29;94748.50;;;19.53;100.00
9721;BME280;4899;42.644;23.366;2022-07-03T00:19:56;94762.75;;;19.55;100.00
9721;BME280;4899;42.644;23.366;2022-07-03T00:22:25;94753.91;;;19.41;100.00
9721;BME280;4899;42.644;23.366;2022-07-03T00:24:53;94749.00;;;19.35;100.00
9721;BME280;4899;42.644;23.366;2022-07-03T00:27:25;94749.63;;;19.29;100.00
9721;BME280;4899;42.644;23.366;2022-07-03T00:29:56;94751.66;;;19.16;100.00
9721;BME280;4899;42.644;23.366;2022-07-03T00:32:25;94753.72;;;19.07;100.00
9721;BME280;4899;42.644;23.366;2022-07-03T00:34:53;94748.75;;;18.98;100.00
9721;BME280;4899;42.644;23.366;2022-07-03T00:37:21;94746.03;;;18.91;100.00
9721;BME280;4899;42.644;23.366;2022-07-03T00:39:48;94735.13;;;18.86;100.00
9721;BME280;4899;42.644;23.366;2022-07-03T00:42:16;94736.50;;;18.80;100.00
9721;BME280;4899;42.644;23.366;2022-07-03T00:44:45;94732.25;;;18.71;100.00
9721;BME280;4899;42.644;23.366;2022-07-03T00:47:14;94725.75;;;18.62;100.00
9721;BME280;4899;42.644;23.366;2022-07-03T00:49:44;94722.72;;;18.60;100.00
9721;BME280;4899;42.644;23.366;2022-07-03T00:52:12;94722.28;;;18.58;100.00
9721;BME280;4899;42.644;23.366;2022-07-03T00:54:43;94708.41;;;18.50;100.00
9721;BME280;4899;42.644;23.366;2022-07-03T00:57:14;94722.19;;;18.51;100.00
9721;BME280;4899;42.644;23.366;2022-07-03T00:59:41;94713.88;;;18.45;100.00
9721;BME280;4899;42.644;23.366;2022-07-03T01:02:15;94719.56;;;18.51;100.00
9721;BME280;4899;42.644;23.366;2022-07-03T01:04:51;94715.41;;;18.46;100.00
9721;BME280;4899;42.644;23.366;2022-07-03T01:07:25;94714.97;;;18.44;100.00
9721;BME280;4899;42.644;23.366;2022-07-03T01:10:03;94718.69;;;18.43;100.00
9721;BME280;4899;42.644;23.366;2022-07-03T01:12:37;94716.44;;;18.41;100.00
9721;BME280;4899;42.644;23.366;2022-07-03T01:15:12;94708.91;;;18.36;100.00
9721;BME280;4899;42.644;23.366;2022-07-03T01:17:50;94720.19;;;18.44;100.00
9721;BME280;4899;42.644;23.366;2022-07-03T01:20:22;94706.75;;;18.42;100.00
9721;BME280;4899;42.644;23.366;2022-07-03T01:22:55;94699.56;;;18.35;100.00
9721;BME280;4899;42.644;23.366;2022-07-03T01:25:25;94706.00;;;18.41;100.00
9721;BME280;4899;42.644;23.366;2022-07-03T01:28:12;94702.19;;;18.35;100.00
9721;BME280;4899;42.644;23.366;2022-07-03T01:30:40;94698.66;;;18.28;100.00
9721;BME280;4899;42.644;23.366;2022-07-03T01:33:09;94707.31;;;18.32;100.00
9721;BME280;4899;42.644;23.366;2022-07-03T01:35:37;94717.31;;;18.30;100.00
9721;BME280;4899;42.644;23.366;2022-07-03T01:38:07;94712.78;;;18.27;100.00
9721;BME280;4899;42.644;23.366;2022-07-03T01:40:37;94692.09;;;18.14;100.00
9721;BME280;4899;42.644;23.366;2022-07-03T01:43:06;94693.53;;;18.12;100.00
9721;BME280;4899;42.644;23.366;2022-07-03T01:45:39;94706.63;;;18.16;100.00
9721;BME280;4899;42.644;23.366;2022-07-03T01:48:09;94708.31;;;18.08;100.00
9721;BME280;4899;42.644;23.366;2022-07-03T01:50:38;94705.66;;;18.04;100.00
9721;BME280;4899;42.644;23.366;2022-07-03T01:53:08;94712.28;;;18.02;100.00
9721;BME280;4899;42.644;23.366;2022-07-03T01:55:38;94709.63;;;17.98;100.00
9721;BME280;4899;42.644;23.366;2022-07-03T01:58:05;94712.72;;;18.04;100.00
9721;BME280;4899;42.644;23.366;2022-07-03T02:00:45;94717.50;;;18.02;100.00
9721;BME280;4899;42.644;23.366;2022-07-03T02:03:21;94711.13;;;17.99;100.00
9721;BME280;4899;42.644;23.366;2022-07-03T02:05:55;94708.66;;;17.87;100.00
9721;BME280;4899;42.644;23.366;2022-07-03T02:08:36;94716.28;;;17.96;100.00
9721;BME280;4899;42.644;23.366;2022-07-03T02:11:14;94723.06;;;18.00;100.00
9721;BME280;4899;42.644;23.366;2022-07-03T02:13:54;94725.31;;;18.02;100.00
9721;BME280;4899;42.644;23.366;2022-07-03T02:16:24;94718.59;;;18.01;100.00
9721;BME280;4899;42.644;23.366;2022-07-03T02:19:03;94712.28;;;18.02;100.00
9721;BME280;4899;42.644;23.366;2022-07-03T02:21:31;94719.34;;;18.01;100.00
9721;BME280;4899;42.644;23.366;2022-07-03T02:24:06;94717.03;;;17.96;100.00
9721;BME280;4899;42.644;23.366;2022-07-03T02:26:41;94695.72;;;17.91;100.00
9721;BME280;4899;42.644;23.366;2022-07-03T02:29:12;94707.91;;;17.87;100.00
9721;BME280;4899;42.644;23.366;2022-07-03T02:31:43;94709.84;;;17.74;100.00
9721;BME280;4899;42.644;23.366;2022-07-03T02:34:15;94717.94;;;17.69;100.00
9721;BME280;4899;42.644;23.366;2022-07-03T02:36:45;94706.06;;;17.56;100.00
9721;BME280;4899;42.644;23.366;2022-07-03T02:39:23;94703.34;;;17.48;100.00
9721;BME280;4899;42.644;23.366;2022-07-03T02:41:56;94729.66;;;17.63;100.00
9721;BME280;4899;42.644;23.366;2022-07-03T02:44:27;94722.09;;;17.58;100.00
9721;BME280;4899;42.644;23.366;2022-07-03T02:47:03;94726.66;;;17.61;100.00
9721;BME280;4899;42.644;23.366;2022-07-03T02:49:42;94723.19;;;17.57;100.00
9721;BME280;4899;42.644;23.366;2022-07-03T02:52:20;94721.88;;;17.63;100.00
9721;BME280;4899;42.644;23.366;2022-07-03T02:54:51;94710.53;;;17.55;100.00
9721;BME280;4899;42.644;23.366;2022-07-03T02:57:19;94736.38;;;17.64;100.00
9721;BME280;4899;42.644;23.366;2022-07-03T02:59:53;94731.94;;;17.64;100.00
9721;BME280;4899;42.644;23.366;2022-07-03T03:02:38;94734.63;;;17.68;100.00
9721;BME280;4899;42.644;23.366;2022-07-03T03:05:12;94733.97;;;17.71;100.00
9721;BME280;4899;42.644;23.366;2022-07-03T03:07:47;94737.72;;;17.73;100.00
9721;BME280;4899;42.644;23.366;2022-07-03T03:10:19;94735.06;;;17.70;100.00
9721;BME280;4899;42.644;23.366;2022-07-03T03:12:47;94741.09;;;17.74;100.00
9721;BME280;4899;42.644;23.366;2022-07-03T03:15:20;94735.19;;;17.77;100.00
9721;BME280;4899;42.644;23.366;2022-07-03T03:17:55;94747.88;;;17.78;100.00
9721;BME280;4899;42.644;23.366;2022-07-03T03:20:27;94739.56;;;17.73;100.00
9721;BME280;4899;42.644;23.366;2022-07-03T03:23:06;94742.19;;;17.73;100.00
9721;BME280;4899;42.644;23.366;2022-07-03T03:25:35;94739.91;;;17.71;100.00
9721;BME280;4899;42.644;23.366;2022-07-03T03:28:02;94746.28;;;17.74;100.00
9721;BME280;4899;42.644;23.366;2022-07-03T03:30:30;94749.97;;;17.73;100.00
9721;BME280;4899;42.644;23.366;2022-07-03T03:32:58;94730.44;;;17.63;100.00
9721;BME280;4899;42.644;23.366;2022-07-03T03:35:25;94747.94;;;17.82;100.00
9721;BME280;4899;42.644;23.366;2022-07-03T03:37:52;94745.00;;;17.83;100.00
9721;BME280;4899;42.644;23.366;2022-07-03T03:40:20;94745.59;;;17.93;100.00
9721;BME280;4899;42.644;23.366;2022-07-03T03:42:46;94728.72;;;17.87;100.00
9721;BME280;4899;42.644;23.366;2022-07-03T03:45:13;94741.69;;;18.02;100.00
9721;BME280;4899;42.644;23.366;2022-07-03T03:47:40;94754.03;;;18.05;100.00
9721;BME280;4899;42.644;23.366;2022-07-03T03:50:09;94747.06;;;18.09;100.00
9721;BME280;4899;42.644;23.366;2022-07-03T03:52:36;94756.03;;;18.12;100.00
9721;BME280;4899;42.644;23.366;2022-07-03T03:55:04;94759.47;;;18.16;100.00
9721;BME280;4899;42.644;23.366;2022-07-03T03:57:31;94762.19;;;18.23;100.00
9721;BME280;4899;42.644;23.366;2022-07-03T03:59:58;94756.38;;;18.30;100.00
9721;BME280;4899;42.644;23.366;2022-07-03T04:02:25;94753.78;;;18.30;100.00
9721;BME280;4899;42.644;23.366;2022-07-03T04:04:51;94744.44;;;18.29;100.00
9721;BME280;4899;42.644;23.366;2022-07-03T04:07:20;94661.66;;;17.80;100.00
9721;BME280;4899;42.644;23.366;2022-07-03T04:09:46;94744.75;;;18.43;100.00
9721;BME280;4899;42.644;23.366;2022-07-03T04:12:13;94750.78;;;18.47;100.00
9721;BME280;4899;42.644;23.366;2022-07-03T04:14:40;94739.66;;;18.50;100.00
9721;BME280;4899;42.644;23.366;2022-07-03T04:17:07;94749.09;;;18.58;100.00
9721;BME280;4899;42.644;23.366;2022-07-03T04:19:34;94741.28;;;18.58;100.00
9721;BME280;4899;42.644;23.366;2022-07-03T04:22:01;94745.00;;;18.77;100.00
9721;BME280;4899;42.644;23.366;2022-07-03T04:24:35;94749.59;;;18.83;100.00
9721;BME280;4899;42.644;23.366;2022-07-03T04:27:02;94746.38;;;18.90;100.00
9721;BME280;4899;42.644;23.366;2022-07-03T04:29:29;94744.13;;;18.88;100.00
9721;BME280;4899;42.644;23.366;2022-07-03T04:31:56;94743.59;;;19.02;100.00
9721;BME280;4899;42.644;23.366;2022-07-03T04:34:23;94730.97;;;19.04;100.00
9721;BME280;4899;42.644;23.366;2022-07-03T04:36:50;94737.81;;;19.12;100.00
9721;BME280;4899;42.644;23.366;2022-07-03T04:39:17;94738.72;;;19.23;100.00
9721;BME280;4899;42.644;23.366;2022-07-03T04:41:45;94738.84;;;19.30;100.00
9721;BME280;4899;42.644;23.366;2022-07-03T04:44:12;94745.75;;;19.42;100.00
9721;BME280;4899;42.644;23.366;2022-07-03T04:46:39;94742.13;;;19.50;100.00
9721;BME280;4899;42.644;23.366;2022-07-03T04:49:06;94754.28;;;19.62;100.00
9721;BME280;4899;42.644;23.366;2022-07-03T04:51:33;94746.81;;;19.60;100.00
9721;BME280;4899;42.644;23.366;2022-07-03T04:54:00;94760.69;;;19.68;100.00
9721;BME280;4899;42.644;23.366;2022-07-03T04:56:26;94756.34;;;19.76;100.00
9721;BME280;4899;42.644;23.366;2022-07-03T04:58:55;94752.78;;;19.87;100.00
9721;BME280;4899;42.644;23.366;2022-07-03T05:01:21;94760.00;;;19.97;100.00
9721;BME280;4899;42.644;23.366;2022-07-03T05:03:48;94751.88;;;20.06;100.00
9721;BME280;4899;42.644;23.366;2022-07-03T05:06:15;94755.75;;;20.16;100.00
9721;BME280;4899;42.644;23.366;2022-07-03T05:08:42;94750.63;;;20.23;100.00
9721;BME280;4899;42.644;23.366;2022-07-03T05:11:09;94738.34;;;20.27;100.00
9721;BME280;4899;42.644;23.366;2022-07-03T05:13:36;94748.19;;;20.37;100.00
9721;BME280;4899;42.644;23.366;2022-07-03T05:16:04;94740.16;;;20.53;100.00
9721;BME280;4899;42.644;23.366;2022-07-03T05:18:31;94745.53;;;20.64;100.00
9721;BME280;4899;42.644;23.366;2022-07-03T05:20:59;94748.22;;;20.71;100.00
9721;BME280;4899;42.644;23.366;2022-07-03T05:23:26;94753.50;;;20.78;100.00
9721;BME280;4899;42.644;23.366;2022-07-03T05:25:53;94752.00;;;20.77;100.00
9721;BME280;4899;42.644;23.366;2022-07-03T05:28:20;94752.84;;;20.84;100.00
9721;BME280;4899;42.644;23.366;2022-07-03T05:30:47;94751.78;;;20.93;100.00
9721;BME280;4899;42.644;23.366;2022-07-03T05:33:16;94754.44;;;20.96;100.00
9721;BME280;4899;42.644;23.366;2022-07-03T05:35:43;94748.47;;;20.96;100.00
9721;BME280;4899;42.644;23.366;2022-07-03T05:38:09;94741.03;;;21.01;100.00
9721;BME280;4899;42.644;23.366;2022-07-03T05:40:36;94752.78;;;21.18;100.00
9721;BME280;4899;42.644;23.366;2022-07-03T05:43:02;94763.28;;;21.22;100.00
9721;BME280;4899;42.644;23.366;2022-07-03T05:45:29;94757.81;;;21.34;100.00
9721;BME280;4899;42.644;23.366;2022-07-03T05:47:56;94748.03;;;21.31;100.00
9721;BME280;4899;42.644;23.366;2022-07-03T05:50:24;94771.75;;;21.48;100.00
9721;BME280;4899;42.644;23.366;2022-07-03T05:52:55;94766.88;;;21.47;100.00
9721;BME280;4899;42.644;23.366;2022-07-03T05:55:27;94768.47;;;21.59;100.00
9721;BME280;4899;42.644;23.366;2022-07-03T05:57:54;94774.50;;;21.63;100.00
9721;BME280;4899;42.644;23.366;2022-07-03T06:00:20;94770.00;;;21.63;100.00
9721;BME280;4899;42.644;23.366;2022-07-03T06:02:47;94767.38;;;21.63;100.00
9721;BME280;4899;42.644;23.366;2022-07-03T06:05:14;94779.44;;;21.75;100.00
9721;BME280;4899;42.644;23.366;2022-07-03T06:07:42;94779.13;;;21.84;100.00
9721;BME280;4899;42.644;23.366;2022-07-03T06:10:09;94784.78;;;21.93;100.00
9721;BME280;4899;42.644;23.366;2022-07-03T06:12:36;94781.09;;;22.01;100.00
9721;BME280;4899;42.644;23.366;2022-07-03T06:15:04;94782.97;;;22.00;100.00
9721;BME280;4899;42.644;23.366;2022-07-03T06:17:31;94763.81;;;21.86;100.00
9721;BME280;4899;42.644;23.366;2022-07-03T06:19:58;94781.81;;;21.98;100.00
9721;BME280;4899;42.644;23.366;2022-07-03T06:22:24;94781.53;;;22.06;100.00
9721;BME280;4899;42.644;23.366;2022-07-03T06:25:05;94780.09;;;22.16;100.00
9721;BME280;4899;42.644;23.366;2022-07-03T06:27:32;94776.38;;;22.21;100.00
9721;BME280;4899;42.644;23.366;2022-07-03T06:29:59;94774.13;;;22.19;100.00
9721;BME280;4899;42.644;23.366;2022-07-03T06:32:26;94776.44;;;22.31;100.00
9721;BME280;4899;42.644;23.366;2022-07-03T06:34:53;94785.81;;;22.39;100.00
9721;BME280;4899;42.644;23.366;2022-07-03T06:37:21;94774.19;;;22.33;100.00
9721;BME280;4899;42.644;23.366;2022-07-03T06:39:48;94772.72;;;22.39;100.00
9721;BME280;4899;42.644;23.366;2022-07-03T06:42:16;94780.25;;;22.52;100.00
9721;BME280;4899;42.644;23.366;2022-07-03T06:44:43;94781.41;;;22.58;100.00
9721;BME280;4899;42.644;23.366;2022-07-03T06:47:11;94787.06;;;22.67;100.00
9721;BME280;4899;42.644;23.366;2022-07-03T06:49:38;94780.31;;;22.69;100.00
9721;BME280;4899;42.644;23.366;2022-07-03T06:52:05;94774.72;;;22.75;100.00
9721;BME280;4899;42.644;23.366;2022-07-03T06:54:32;94773.28;;;22.84;100.00
9721;BME280;4899;42.644;23.366;2022-07-03T06:56:58;94775.94;;;22.95;100.00
9721;BME280;4899;42.644;23.366;2022-07-03T06:59:27;94778.19;;;23.00;100.00
9721;BME280;4899;42.644;23.366;2022-07-03T07:01:54;94773.72;;;23.11;100.00
9721;BME280;4899;42.644;23.366;2022-07-03T07:04:20;94771.47;;;23.20;100.00
9721;BME280;4899;42.644;23.366;2022-07-03T07:06:47;94768.50;;;23.40;100.00
9721;BME280;4899;42.644;23.366;2022-07-03T07:09:14;94766.22;;;23.52;100.00
9721;BME280;4899;42.644;23.366;2022-07-03T07:11:42;94776.00;;;23.70;100.00
9721;BME280;4899;42.644;23.366;2022-07-03T07:14:09;94765.84;;;23.79;100.00
9721;BME280;4899;42.644;23.366;2022-07-03T07:16:37;94752.38;;;23.80;100.00
9721;BME280;4899;42.644;23.366;2022-07-03T07:19:04;94767.75;;;23.89;100.00
9721;BME280;4899;42.644;23.366;2022-07-03T07:21:31;94765.50;;;23.80;100.00
9721;BME280;4899;42.644;23.366;2022-07-03T07:23:58;94765.47;;;23.91;100.00
9721;BME280;4899;42.644;23.366;2022-07-03T07:26:24;94765.88;;;23.86;100.00
9721;BME280;4899;42.644;23.366;2022-07-03T07:28:51;94768.47;;;23.93;100.00
9721;BME280;4899;42.644;23.366;2022-07-03T07:31:18;94761.72;;;23.96;100.00
9721;BME280;4899;42.644;23.366;2022-07-03T07:33:46;94773.34;;;24.09;100.00
9721;BME280;4899;42.644;23.366;2022-07-03T07:36:13;94743.69;;;24.05;100.00
9721;BME280;4899;42.644;23.366;2022-07-03T07:38:40;94757.53;;;24.34;100.00
9721;BME280;4899;42.644;23.366;2022-07-03T07:41:08;94762.72;;;24.48;100.00
9721;BME280;4899;42.644;23.366;2022-07-03T07:43:35;94757.81;;;24.57;100.00
9721;BME280;4899;42.644;23.366;2022-07-03T07:46:02;94754.00;;;24.65;100.00
9721;BME280;4899;42.644;23.366;2022-07-03T07:48:29;94761.06;;;24.82;100.00
9721;BME280;4899;42.644;23.366;2022-07-03T07:50:58;94759.13;;;24.90;100.00
9721;BME280;4899;42.644;23.366;2022-07-03T07:53:25;94741.50;;;24.83;100.00
9721;BME280;4899;42.644;23.366;2022-07-03T07:55:51;94760.59;;;25.02;100.00
9721;BME280;4899;42.644;23.366;2022-07-03T07:58:18;94760.19;;;25.07;100.00
9721;BME280;4899;42.644;23.366;2022-07-03T08:00:47;94750.03;;;25.09;100.00
9721;BME280;4899;42.644;23.366;2022-07-03T08:03:29;94749.25;;;25.12;100.00
9721;BME280;4899;42.644;23.366;2022-07-03T08:06:15;94761.16;;;25.31;100.00
9721;BME280;4899;42.644;23.366;2022-07-03T08:08:43;94743.78;;;25.40;100.00
9721;BME280;4899;42.644;23.366;2022-07-03T08:11:10;94738.44;;;25.48;100.00
9721;BME280;4899;42.644;23.366;2022-07-03T08:13:37;94736.16;;;25.53;100.00
9721;BME280;4899;42.644;23.366;2022-07-03T08:16:05;94737.63;;;25.58;100.00
9721;BME280;4899;42.644;23.366;2022-07-03T08:18:32;94739.78;;;25.70;100.00
9721;BME280;4899;42.644;23.366;2022-07-03T08:20:59;94746.88;;;25.80;100.00
9721;BME280;4899;42.644;23.366;2022-07-03T08:23:27;94740.78;;;25.87;100.00
9721;BME280;4899;42.644;23.366;2022-07-03T08:25:54;94745.97;;;25.94;100.00
9721;BME280;4899;42.644;23.366;2022-07-03T08:28:21;94752.28;;;26.03;100.00
9721;BME280;4899;42.644;23.366;2022-07-03T08:30:48;94752.50;;;26.16;100.00
9721;BME280;4899;42.644;23.366;2022-07-03T08:33:15;94750.94;;;26.22;100.00
9721;BME280;4899;42.644;23.366;2022-07-03T08:35:42;94741.81;;;26.30;100.00
9721;BME280;4899;42.644;23.366;2022-07-03T08:38:08;94742.47;;;26.42;100.00
9721;BME280;4899;42.644;23.366;2022-07-03T08:40:37;94726.88;;;26.51;100.00
9721;BME280;4899;42.644;23.366;2022-07-03T08:43:04;94740.91;;;26.75;100.00
9721;BME280;4899;42.644;23.366;2022-07-03T08:45:33;94741.53;;;26.86;100.00
9721;BME280;4899;42.644;23.366;2022-07-03T08:48:01;94747.50;;;26.90;100.00
9721;BME280;4899;42.644;23.366;2022-07-03T08:50:29;94745.91;;;26.96;100.00
9721;BME280;4899;42.644;23.366;2022-07-03T08:52:59;94744.41;;;26.95;100.00
9721;BME280;4899;42.644;23.366;2022-07-03T08:55:28;94740.91;;;27.05;100.00
9721;BME280;4899;42.644;23.366;2022-07-03T08:57:58;94737.41;;;27.12;100.00
9721;BME280;4899;42.644;23.366;2022-07-03T09:00:25;94733.41;;;27.27;100.00
9721;BME280;4899;42.644;23.366;2022-07-03T09:02:54;94735.41;;;27.43;100.00
9721;BME280;4899;42.644;23.366;2022-07-03T09:05:21;94740.47;;;27.57;99.25
9721;BME280;4899;42.644;23.366;2022-07-03T09:07:48;94714.78;;;27.57;97.12
9721;BME280;4899;42.644;23.366;2022-07-03T09:10:17;94736.91;;;27.91;90.50
9721;BME280;4899;42.644;23.366;2022-07-03T09:12:45;94732.22;;;27.98;85.54
9721;BME280;4899;42.644;23.366;2022-07-03T09:15:13;94723.94;;;27.96;89.21
9721;BME280;4899;42.644;23.366;2022-07-03T09:17:55;94734.09;;;28.01;94.01
9721;BME280;4899;42.644;23.366;2022-07-03T09:20:28;94734.88;;;28.18;95.42
9721;BME280;4899;42.644;23.366;2022-07-03T09:23:08;94727.28;;;28.20;90.85
9721;BME280;4899;42.644;23.366;2022-07-03T09:25:36;94723.81;;;28.27;88.74
9721;BME280;4899;42.644;23.366;2022-07-03T09:28:16;94703.81;;;28.22;87.22
9721;BME280;4899;42.644;23.366;2022-07-03T09:30:55;94726.41;;;28.46;79.54
9721;BME280;4899;42.644;23.366;2022-07-03T09:33:22;94715.41;;;28.48;80.83
9721;BME280;4899;42.644;23.366;2022-07-03T09:35:52;94722.16;;;28.53;88.50
9721;BME280;4899;42.644;23.366;2022-07-03T09:38:20;94719.69;;;28.62;97.25
9721;BME280;4899;42.644;23.366;2022-07-03T09:40:48;94720.19;;;28.73;91.32
9721;BME280;4899;42.644;23.366;2022-07-03T09:43:22;94709.78;;;28.82;86.22
9721;BME280;4899;42.644;23.366;2022-07-03T09:45:53;94722.44;;;29.10;88.99
9721;BME280;4899;42.644;23.366;2022-07-03T09:48:21;94719.69;;;29.30;85.06
9721;BME280;4899;42.644;23.366;2022-07-03T09:50:48;94721.66;;;29.42;75.37
9721;BME280;4899;42.644;23.366;2022-07-03T09:53:15;94718.81;;;29.53;72.21
9721;BME280;4899;42.644;23.366;2022-07-03T09:55:55;94717.72;;;29.51;71.53
9721;BME280;4899;42.644;23.366;2022-07-03T09:58:24;94716.16;;;29.53;70.30
9721;BME280;4899;42.644;23.366;2022-07-03T10:00:51;94714.38;;;29.63;68.74
9721;BME280;4899;42.644;23.366;2022-07-03T10:03:21;94709.63;;;29.70;67.07
9721;BME280;4899;42.644;23.366;2022-07-03T10:05:48;94703.16;;;29.71;76.70
9721;BME280;4899;42.644;23.366;2022-07-03T10:08:15;94706.94;;;29.87;72.40
9721;BME280;4899;42.644;23.366;2022-07-03T10:10:44;94701.63;;;29.58;73.46
9721;BME280;4899;42.644;23.366;2022-07-03T10:13:12;94675.88;;;29.26;68.75
9721;BME280;4899;42.644;23.366;2022-07-03T10:15:40;94686.56;;;29.55;79.97
9721;BME280;4899;42.644;23.366;2022-07-03T10:18:09;94704.59;;;29.44;61.93
9721;BME280;4899;42.644;23.366;2022-07-03T10:20:40;94690.94;;;29.61;69.18
9721;BME280;4899;42.644;23.366;2022-07-03T10:23:07;94688.09;;;29.68;57.99
9721;BME280;4899;42.644;23.366;2022-07-03T10:25:35;94698.38;;;29.66;56.73
9721;BME280;4899;42.644;23.366;2022-07-03T10:28:04;94687.56;;;29.74;55.26
9721;BME280;4899;42.644;23.366;2022-07-03T10:30:32;94685.22;;;29.92;58.58
9721;BME280;4899;42.644;23.366;2022-07-03T10:32:59;94687.75;;;29.95;55.40
9721;BME280;4899;42.644;23.366;2022-07-03T10:35:30;94691.56;;;30.23;56.76
9721;BME280;4899;42.644;23.366;2022-07-03T10:38:13;94685.50;;;30.65;54.44
9721;BME280;4899;42.644;23.366;2022-07-03T10:40:54;94690.06;;;30.89;52.35
9721;BME280;4899;42.644;23.366;2022-07-03T10:43:43;94684.00;;;30.89;50.70
9721;BME280;4899;42.644;23.366;2022-07-03T10:46:28;94679.78;;;30.79;50.42
9721;BME280;4899;42.644;23.366;2022-07-03T10:49:00;94677.41;;;30.68;50.01
9721;BME280;4899;42.644;23.366;2022-07-03T10:51:29;94679.44;;;30.51;49.73
9721;BME280;4899;42.644;23.366;2022-07-03T10:54:22;94678.56;;;30.54;52.36
9721;BME280;4899;42.644;23.366;2022-07-03T10:57:08;94675.03;;;30.45;52.58
9721;BME280;4899;42.644;23.366;2022-07-03T11:00:00;94672.34;;;30.61;52.47
9721;BME280;4899;42.644;23.366;2022-07-03T11:02:31;94673.47;;;30.98;50.05
9721;BME280;4899;42.644;23.366;2022-07-03T11:05:21;94673.59;;;33.13;46.92
9721;BME280;4899;42.644;23.366;2022-07-03T11:08:05;94674.88;;;36.22;45.15
9721;BME280;4899;42.644;23.366;2022-07-03T11:10:36;94686.25;;;38.19;39.41
9721;BME280;4899;42.644;23.366;2022-07-03T11:13:17;94682.56;;;39.81;36.50
9721;BME280;4899;42.644;23.366;2022-07-03T11:15:51;94681.03;;;41.37;35.03
9721;BME280;4899;42.644;23.366;2022-07-03T11:18:29;94666.88;;;41.77;31.88
9721;BME280;4899;42.644;23.366;2022-07-03T11:21:21;94670.94;;;42.66;31.60
9721;BME280;4899;42.644;23.366;2022-07-03T11:24:14;94667.94;;;43.43;29.68
9721;BME280;4899;42.644;23.366;2022-07-03T11:29:58;94652.75;;;44.55;28.77
9721;BME280;4899;42.644;23.366;2022-07-03T11:32:49;94658.38;;;44.12;29.14
9721;BME280;4899;42.644;23.366;2022-07-03T11:35:45;94650.56;;;43.89;29.58
9721;BME280;4899;42.644;23.366;2022-07-03T11:38:19;94649.47;;;43.79;29.92
9721;BME280;4899;42.644;23.366;2022-07-03T11:40:49;94634.25;;;44.08;28.94
9721;BME280;4899;42.644;23.366;2022-07-03T11:43:18;94650.06;;;44.68;27.35
9721;BME280;4899;42.644;23.366;2022-07-03T11:45:46;94651.75;;;45.11;28.42
9721;BME280;4899;42.644;23.366;2022-07-03T11:48:16;94646.63;;;44.68;28.20
9721;BME280;4899;42.644;23.366;2022-07-03T11:50:45;94646.13;;;44.96;27.03
9721;BME280;4899;42.644;23.366;2022-07-03T11:53:22;94650.91;;;45.16;27.98
9721;BME280;4899;42.644;23.366;2022-07-03T11:55:54;94645.88;;;45.47;27.21
9721;BME280;4899;42.644;23.366;2022-07-03T11:58:24;94636.28;;;45.06;29.24
9721;BME280;4899;42.644;23.366;2022-07-03T12:00:51;94637.25;;;45.69;27.21
9721;BME280;4899;42.644;23.366;2022-07-03T12:03:24;94630.47;;;45.49;27.94
9721;BME280;4899;42.644;23.366;2022-07-03T12:05:56;94632.72;;;46.06;26.85
9721;BME280;4899;42.644;23.366;2022-07-03T12:08:26;94638.84;;;46.69;26.74
9721;BME280;4899;42.644;23.366;2022-07-03T12:10:58;94624.00;;;46.28;27.02
9721;BME280;4899;42.644;23.366;2022-07-03T12:13:27;94631.59;;;46.43;26.78
9721;BME280;4899;42.644;23.366;2022-07-03T12:16:02;94618.50;;;45.99;27.72
9721;BME280;4899;42.644;23.366;2022-07-03T12:18:44;94626.25;;;45.75;27.50
9721;BME280;4899;42.644;23.366;2022-07-03T12:21:12;94622.13;;;45.47;29.22
9721;BME280;4899;42.644;23.366;2022-07-03T12:23:42;94616.16;;;45.62;26.29
9721;BME280;4899;42.644;23.366;2022-07-03T12:26:09;94598.44;;;45.21;27.60
9721;BME280;4899;42.644;23.366;2022-07-03T12:28:38;94608.47;;;45.94;26.59
9721;BME280;4899;42.644;23.366;2022-07-03T12:31:06;94610.19;;;46.47;26.83
9721;BME280;4899;42.644;23.366;2022-07-03T12:33:33;94613.22;;;46.64;27.53
9721;BME280;4899;42.644;23.366;2022-07-03T12:36:03;94620.16;;;47.01;26.15
9721;BME280;4899;42.644;23.366;2022-07-03T12:38:30;94615.16;;;47.13;25.47
9721;BME280;4899;42.644;23.366;2022-07-03T12:41:04;94586.44;;;46.26;25.98
9721;BME280;4899;42.644;23.366;2022-07-03T12:43:40;94608.19;;;45.51;27.25
9721;BME280;4899;42.644;23.366;2022-07-03T12:46:16;94589.28;;;45.79;26.73
9721;BME280;4899;42.644;23.366;2022-07-03T12:48:47;94605.75;;;46.36;26.00
9721;BME280;4899;42.644;23.366;2022-07-03T12:51:15;94599.38;;;45.58;26.09
9721;BME280;4899;42.644;23.366;2022-07-03T12:53:42;94592.81;;;44.08;28.81
9721;BME280;4899;42.644;23.366;2022-07-03T12:56:10;94615.69;;;45.24;26.65
9721;BME280;4899;42.644;23.366;2022-07-03T12:58:40;94601.31;;;46.25;25.51
9721;BME280;4899;42.644;23.366;2022-07-03T13:01:26;94607.06;;;45.80;25.94
9721;BME280;4899;42.644;23.366;2022-07-03T13:03:53;94586.16;;;45.75;26.92
9721;BME280;4899;42.644;23.366;2022-07-03T13:06:21;94594.75;;;46.21;26.56
9721;BME280;4899;42.644;23.366;2022-07-03T13:08:50;94576.88;;;45.71;26.35
9721;BME280;4899;42.644;23.366;2022-07-03T13:11:26;94587.53;;;44.87;28.14
9721;BME280;4899;42.644;23.366;2022-07-03T13:14:02;94592.16;;;44.02;28.02
9721;BME280;4899;42.644;23.366;2022-07-03T13:16:29;94589.22;;;42.92;27.58
9721;BME280;4899;42.644;23.366;2022-07-03T13:18:57;94583.94;;;41.56;28.19
9721;BME280;4899;42.644;23.366;2022-07-03T13:21:24;94568.75;;;42.48;27.55